createdAt,value
2019-01-30T00:00:03.479Z,16.79
2019-01-30T00:01:03.431Z,16.81
2019-01-30T00:02:03.378Z,16.82
2019-01-30T00:03:03.328Z,16.86
2019-01-30T00:04:03.278Z,16.85
2019-01-30T00:05:03.228Z,16.79
2019-01-30T00:06:03.180Z,16.86
2019-01-30T00:07:03.127Z,16.89
2019-01-30T00:08:03.077Z,16.79
2019-01-30T00:09:03.029Z,16.79
2019-01-30T00:10:02.977Z,16.79
2019-01-30T00:11:02.926Z,16.73
2019-01-30T00:12:02.878Z,16.82
2019-01-30T00:13:02.826Z,16.79
2019-01-30T00:14:02.774Z,16.83
2019-01-30T00:15:02.725Z,16.81
2019-01-30T00:16:02.675Z,16.75
2019-01-30T00:17:02.625Z,16.83
2019-01-30T00:18:02.573Z,16.85
2019-01-30T00:19:02.524Z,16.83
2019-01-30T00:20:02.473Z,16.83
2019-01-30T00:21:02.423Z,16.79
2019-01-30T00:22:02.466Z,16.75
2019-01-30T00:23:02.323Z,16.78
2019-01-30T00:24:02.272Z,16.81
2019-01-30T00:25:02.223Z,16.86
2019-01-30T00:26:02.174Z,16.75
2019-01-30T00:27:02.123Z,16.75
2019-01-30T00:28:02.071Z,16.76
2019-01-30T00:29:02.021Z,16.78
2019-01-30T00:30:04.218Z,16.85
2019-01-30T00:31:01.921Z,16.75
2019-01-30T00:32:01.870Z,16.85
2019-01-30T00:33:01.821Z,16.78
2019-01-30T00:34:01.769Z,16.81
2019-01-30T00:35:01.720Z,16.76
2019-01-30T00:36:01.669Z,16.82
2019-01-30T00:37:01.621Z,16.78
2019-01-30T00:38:01.568Z,16.79
2019-01-30T00:39:01.618Z,16.76
2019-01-30T00:40:01.472Z,16.82
2019-01-30T00:41:01.419Z,16.76
2019-01-30T00:42:01.366Z,16.79
2019-01-30T00:43:01.316Z,16.75
2019-01-30T00:44:01.266Z,16.73
2019-01-30T00:45:01.216Z,16.73
2019-01-30T00:46:01.166Z,16.75
2019-01-30T00:47:01.165Z,16.78
2019-01-30T00:48:01.066Z,16.78
2019-01-30T00:49:01.014Z,16.82
2019-01-30T00:50:00.964Z,16.79
2019-01-30T00:51:00.922Z,16.68
2019-01-30T00:52:00.866Z,16.76
2019-01-30T00:53:00.814Z,16.71
2019-01-30T00:54:00.763Z,16.78
2019-01-30T00:55:00.716Z,16.75
2019-01-30T00:56:00.663Z,16.75
2019-01-30T00:57:00.662Z,16.81
2019-01-30T00:58:00.611Z,16.75
2019-01-30T00:59:00.511Z,16.75
2019-01-30T01:00:00.463Z,16.83
2019-01-30T01:01:00.412Z,16.83
2019-01-30T01:02:00.360Z,16.78
2019-01-30T01:03:00.310Z,16.83
2019-01-30T01:04:00.260Z,16.79
2019-01-30T01:05:00.318Z,16.78
2019-01-30T01:06:00.158Z,16.70
2019-01-30T01:07:00.108Z,16.86
2019-01-30T01:08:00.058Z,16.82
2019-01-30T01:09:00.008Z,16.71
2019-01-30T01:09:59.958Z,16.76
2019-01-30T01:10:59.907Z,16.71
2019-01-30T01:11:59.857Z,16.70
2019-01-30T01:12:59.807Z,16.70
2019-01-30T01:13:59.755Z,16.61
2019-01-30T01:14:59.709Z,16.67
2019-01-30T01:15:59.657Z,16.71
2019-01-30T01:16:59.655Z,16.64
2019-01-30T01:17:59.604Z,16.64
2019-01-30T01:18:59.504Z,16.67
2019-01-30T01:19:59.454Z,16.71
2019-01-30T01:20:59.403Z,16.66
2019-01-30T01:21:59.673Z,16.71
2019-01-30T01:22:59.303Z,16.76
2019-01-30T01:23:59.253Z,16.70
2019-01-30T01:24:59.202Z,16.63
2019-01-30T01:25:59.151Z,16.71
2019-01-30T01:26:59.101Z,16.71
2019-01-30T01:27:59.051Z,16.66
2019-01-30T01:28:59.001Z,16.68
2019-01-30T01:29:58.950Z,16.78
2019-01-30T01:30:58.903Z,16.68
2019-01-30T01:31:58.848Z,16.75
2019-01-30T01:32:58.800Z,16.67
2019-01-30T01:33:58.748Z,16.64
2019-01-30T01:34:58.697Z,16.67
2019-01-30T01:35:58.650Z,16.68
2019-01-30T01:36:58.650Z,16.70
2019-01-30T01:37:58.547Z,16.64
2019-01-30T01:38:58.597Z,16.64
2019-01-30T01:39:58.445Z,16.67
2019-01-30T01:40:58.396Z,16.70
2019-01-30T01:41:58.345Z,16.67
2019-01-30T01:42:58.301Z,16.64
2019-01-30T01:43:58.246Z,16.71
2019-01-30T01:44:58.194Z,16.63
2019-01-30T01:45:58.143Z,16.71
2019-01-30T01:46:58.093Z,16.68
2019-01-30T01:47:58.043Z,16.63
2019-01-30T01:48:57.993Z,16.68
2019-01-30T01:49:57.942Z,16.73
2019-01-30T01:50:57.898Z,16.70
2019-01-30T01:51:57.842Z,16.73
2019-01-30T01:52:57.791Z,16.73
2019-01-30T01:53:57.740Z,16.73
2019-01-30T01:54:57.690Z,16.70
2019-01-30T01:55:57.639Z,16.68
2019-01-30T01:56:57.590Z,16.70
2019-01-30T01:57:57.639Z,16.57
2019-01-30T01:58:57.487Z,16.71
2019-01-30T01:59:57.438Z,16.67
2019-01-30T02:00:57.389Z,16.67
2019-01-30T02:01:57.336Z,16.71
2019-01-30T02:02:57.286Z,16.67
2019-01-30T02:03:57.238Z,16.63
2019-01-30T02:04:57.185Z,16.68
2019-01-30T02:05:57.136Z,16.67
2019-01-30T02:06:57.085Z,16.66
2019-01-30T02:07:57.035Z,16.57
2019-01-30T02:08:57.046Z,16.57
2019-01-30T02:09:56.934Z,16.66
2019-01-30T02:10:56.886Z,16.57
2019-01-30T02:11:56.833Z,16.68
2019-01-30T02:12:56.783Z,16.58
2019-01-30T02:13:56.733Z,16.61
2019-01-30T02:14:56.680Z,16.63
2019-01-30T02:15:56.631Z,16.60
2019-01-30T02:16:56.639Z,16.57
2019-01-30T02:17:56.580Z,16.57
2019-01-30T02:18:56.481Z,16.57
2019-01-30T02:19:56.430Z,16.57
2019-01-30T02:20:56.381Z,16.58
2019-01-30T02:21:56.419Z,16.60
2019-01-30T02:22:56.281Z,16.63
2019-01-30T02:23:56.228Z,16.63
2019-01-30T02:24:56.178Z,16.58
2019-01-30T02:25:56.127Z,16.53
2019-01-30T02:26:56.075Z,16.60
2019-01-30T02:27:56.026Z,16.57
2019-01-30T02:28:55.978Z,16.61
2019-01-30T02:29:55.925Z,16.64
2019-01-30T02:30:55.875Z,16.58
2019-01-30T02:31:55.828Z,16.57
2019-01-30T02:32:55.775Z,16.56
2019-01-30T02:33:55.725Z,16.53
2019-01-30T02:34:55.674Z,16.53
2019-01-30T02:35:55.943Z,16.56
2019-01-30T02:36:55.572Z,16.60
2019-01-30T02:37:55.522Z,16.53
2019-01-30T02:38:55.471Z,16.52
2019-01-30T02:39:55.422Z,16.63
2019-01-30T02:40:55.370Z,16.57
2019-01-30T02:41:55.338Z,16.57
2019-01-30T02:42:55.269Z,16.64
2019-01-30T02:43:55.220Z,16.63
2019-01-30T02:44:55.170Z,16.50
2019-01-30T02:45:55.118Z,16.60
2019-01-30T02:46:55.069Z,16.64
2019-01-30T02:47:55.018Z,16.60
2019-01-30T02:48:54.967Z,16.58
2019-01-30T02:49:54.916Z,16.60
2019-01-30T02:50:54.866Z,16.52
2019-01-30T02:51:54.816Z,16.63
2019-01-30T02:52:54.771Z,16.56
2019-01-30T02:53:54.715Z,16.56
2019-01-30T02:54:54.664Z,16.56
2019-01-30T02:55:54.615Z,16.60
2019-01-30T02:56:54.664Z,16.58
2019-01-30T02:57:54.663Z,16.61
2019-01-30T02:58:54.463Z,16.58
2019-01-30T02:59:54.412Z,16.56
2019-01-30T03:00:59.239Z,16.53
2019-01-30T03:01:54.312Z,16.56
2019-01-30T03:02:54.261Z,16.58
2019-01-30T03:03:54.210Z,16.60
2019-01-30T03:04:54.162Z,16.53
2019-01-30T03:05:54.109Z,16.56
2019-01-30T03:06:54.062Z,16.60
2019-01-30T03:07:54.015Z,16.52
2019-01-30T03:08:53.959Z,16.61
2019-01-30T03:09:53.907Z,16.52
2019-01-30T03:10:53.858Z,16.57
2019-01-30T03:11:53.862Z,16.58
2019-01-30T03:12:53.759Z,16.57
2019-01-30T03:13:53.705Z,16.60
2019-01-30T03:14:53.756Z,16.48
2019-01-30T03:15:53.755Z,16.57
2019-01-30T03:16:53.557Z,16.57
2019-01-30T03:17:53.504Z,16.58
2019-01-30T03:18:53.454Z,16.52
2019-01-30T03:19:53.403Z,16.53
2019-01-30T03:20:53.353Z,16.52
2019-01-30T03:21:53.301Z,16.52
2019-01-30T03:22:53.251Z,16.57
2019-01-30T03:23:53.201Z,16.57
2019-01-30T03:24:53.151Z,16.52
2019-01-30T03:25:53.100Z,16.56
2019-01-30T03:26:53.049Z,16.56
2019-01-30T03:27:52.999Z,16.56
2019-01-30T03:28:52.949Z,16.50
2019-01-30T03:29:52.898Z,16.52
2019-01-30T03:30:52.848Z,16.52
2019-01-30T03:31:52.800Z,16.49
2019-01-30T03:32:52.748Z,16.52
2019-01-30T03:33:52.696Z,16.52
2019-01-30T03:34:52.646Z,16.52
2019-01-30T03:35:52.595Z,16.50
2019-01-30T03:36:52.644Z,16.49
2019-01-30T03:37:52.494Z,16.57
2019-01-30T03:38:52.443Z,16.50
2019-01-30T03:39:52.393Z,16.56
2019-01-30T03:40:52.353Z,16.52
2019-01-30T03:41:52.292Z,16.57
2019-01-30T03:42:52.243Z,16.57
2019-01-30T03:43:52.191Z,16.52
2019-01-30T03:44:52.143Z,16.52
2019-01-30T03:45:52.095Z,16.52
2019-01-30T03:46:52.039Z,16.56
2019-01-30T03:47:52.001Z,16.49
2019-01-30T03:48:51.941Z,16.46
2019-01-30T03:49:51.897Z,16.52
2019-01-30T03:50:51.837Z,16.50
2019-01-30T03:51:51.788Z,16.50
2019-01-30T03:52:51.737Z,16.57
2019-01-30T03:53:51.685Z,16.50
2019-01-30T03:54:51.636Z,16.50
2019-01-30T03:55:51.635Z,16.53
2019-01-30T03:56:51.536Z,16.45
2019-01-30T03:57:51.485Z,16.53
2019-01-30T03:58:51.434Z,16.45
2019-01-30T03:59:51.383Z,16.48
2019-01-30T04:00:51.333Z,16.50
2019-01-30T04:01:51.283Z,16.49
2019-01-30T04:02:51.235Z,16.50
2019-01-30T04:03:51.181Z,16.49
2019-01-30T04:04:51.131Z,16.45
2019-01-30T04:05:51.081Z,16.45
2019-01-30T04:06:51.031Z,16.48
2019-01-30T04:07:50.981Z,16.46
2019-01-30T04:08:50.928Z,16.49
2019-01-30T04:09:50.876Z,16.49
2019-01-30T04:10:50.828Z,16.45
2019-01-30T04:11:50.777Z,16.45
2019-01-30T04:12:50.734Z,16.42
2019-01-30T04:13:50.676Z,16.43
2019-01-30T04:14:50.625Z,16.45
2019-01-30T04:15:50.575Z,16.46
2019-01-30T04:16:50.625Z,16.41
2019-01-30T04:17:50.473Z,16.41
2019-01-30T04:18:50.424Z,16.48
2019-01-30T04:19:50.373Z,16.43
2019-01-30T04:20:50.330Z,16.38
2019-01-30T04:21:50.273Z,16.42
2019-01-30T04:22:50.221Z,16.42
2019-01-30T04:23:50.220Z,16.41
2019-01-30T04:24:50.121Z,16.38
2019-01-30T04:25:50.070Z,16.38
2019-01-30T04:26:50.019Z,16.41
2019-01-30T04:27:49.975Z,16.33
2019-01-30T04:28:49.919Z,16.43
2019-01-30T04:29:49.870Z,16.35
2019-01-30T04:30:49.818Z,16.38
2019-01-30T04:31:49.774Z,16.38
2019-01-30T04:32:49.737Z,16.35
2019-01-30T04:33:49.666Z,16.33
2019-01-30T04:34:49.616Z,16.38
2019-01-30T04:35:49.564Z,16.41
2019-01-30T04:36:49.513Z,16.35
2019-01-30T04:37:49.470Z,16.39
2019-01-30T04:38:49.414Z,16.39
2019-01-30T04:39:49.365Z,16.39
2019-01-30T04:40:49.312Z,16.46
2019-01-30T04:41:49.261Z,16.43
2019-01-30T04:42:49.213Z,16.39
2019-01-30T04:43:49.162Z,16.38
2019-01-30T04:44:49.110Z,16.41
2019-01-30T04:45:49.060Z,16.39
2019-01-30T04:46:49.008Z,16.42
2019-01-30T04:47:48.974Z,16.39
2019-01-30T04:48:48.908Z,16.34
2019-01-30T04:49:48.861Z,16.41
2019-01-30T04:50:48.806Z,16.35
2019-01-30T04:51:48.756Z,16.39
2019-01-30T04:52:48.713Z,16.35
2019-01-30T04:53:48.654Z,16.42
2019-01-30T04:54:48.605Z,16.45
2019-01-30T04:55:48.605Z,16.41
2019-01-30T04:56:48.522Z,16.43
2019-01-30T04:57:48.453Z,16.38
2019-01-30T04:58:48.407Z,16.45
2019-01-30T04:59:48.351Z,16.45
2019-01-30T05:00:48.301Z,16.42
2019-01-30T05:01:49.832Z,16.42
2019-01-30T05:02:48.283Z,16.39
2019-01-30T05:03:48.152Z,16.38
2019-01-30T05:04:48.101Z,16.38
2019-01-30T05:05:48.048Z,16.42
2019-01-30T05:06:47.997Z,16.38
2019-01-30T05:07:47.947Z,16.39
2019-01-30T05:08:47.897Z,16.38
2019-01-30T05:09:47.845Z,16.28
2019-01-30T05:10:47.795Z,16.33
2019-01-30T05:11:47.745Z,16.31
2019-01-30T05:12:47.746Z,16.34
2019-01-30T05:13:47.643Z,16.31
2019-01-30T05:14:47.592Z,16.27
2019-01-30T05:15:47.593Z,16.35
2019-01-30T05:16:47.494Z,16.35
2019-01-30T05:17:47.444Z,16.33
2019-01-30T05:18:47.392Z,16.30
2019-01-30T05:19:47.341Z,16.31
2019-01-30T05:20:47.291Z,16.30
2019-01-30T05:21:47.242Z,16.27
2019-01-30T05:22:47.188Z,16.30
2019-01-30T05:23:47.137Z,16.30
2019-01-30T05:24:47.087Z,16.31
2019-01-30T05:25:47.036Z,16.31
2019-01-30T05:26:46.991Z,16.38
2019-01-30T05:27:46.948Z,16.27
2019-01-30T05:28:46.887Z,16.31
2019-01-30T05:29:46.834Z,16.33
2019-01-30T05:30:46.784Z,16.28
2019-01-30T05:31:46.733Z,16.27
2019-01-30T05:32:46.682Z,16.28
2019-01-30T05:33:46.630Z,16.31
2019-01-30T05:34:46.631Z,16.33
2019-01-30T05:35:46.531Z,16.23
2019-01-30T05:36:46.480Z,16.35
2019-01-30T05:37:46.429Z,16.35
2019-01-30T05:38:46.379Z,16.34
2019-01-30T05:39:46.329Z,16.38
2019-01-30T05:40:46.277Z,16.34
2019-01-30T05:41:46.229Z,16.27
2019-01-30T05:42:46.176Z,16.30
2019-01-30T05:43:46.136Z,16.30
2019-01-30T05:44:46.076Z,16.31
2019-01-30T05:45:46.024Z,16.33
2019-01-30T05:46:45.974Z,16.27
2019-01-30T05:47:45.935Z,16.35
2019-01-30T05:48:45.875Z,16.25
2019-01-30T05:49:45.823Z,16.25
2019-01-30T05:50:45.772Z,16.25
2019-01-30T05:51:45.723Z,16.24
2019-01-30T05:52:45.672Z,16.25
2019-01-30T05:53:45.620Z,16.23
2019-01-30T05:54:45.619Z,16.33
2019-01-30T05:55:45.518Z,16.24
2019-01-30T05:56:45.467Z,16.30
2019-01-30T05:57:45.418Z,16.23
2019-01-30T05:58:45.368Z,16.30
2019-01-30T05:59:45.316Z,16.30
2019-01-30T06:00:45.266Z,16.27
2019-01-30T06:01:45.215Z,16.27
2019-01-30T06:02:45.165Z,16.28
2019-01-30T06:03:45.177Z,16.21
2019-01-30T06:04:45.064Z,16.31
2019-01-30T06:05:45.015Z,16.31
2019-01-30T06:06:44.963Z,16.27
2019-01-30T06:07:44.910Z,16.24
2019-01-30T06:08:44.861Z,16.28
2019-01-30T06:09:44.809Z,16.25
2019-01-30T06:10:44.760Z,16.33
2019-01-30T06:11:44.711Z,16.25
2019-01-30T06:12:44.660Z,16.24
2019-01-30T06:13:44.609Z,16.30
2019-01-30T06:14:44.606Z,16.24
2019-01-30T06:15:44.510Z,16.25
2019-01-30T06:16:44.457Z,16.23
2019-01-30T06:17:44.411Z,16.24
2019-01-30T06:18:44.360Z,16.24
2019-01-30T06:19:44.306Z,16.28
2019-01-30T06:20:44.255Z,16.24
2019-01-30T06:21:44.205Z,16.34
2019-01-30T06:22:44.160Z,16.27
2019-01-30T06:23:44.103Z,16.28
2019-01-30T06:24:44.055Z,16.25
2019-01-30T06:25:44.001Z,16.30
2019-01-30T06:26:43.951Z,16.25
2019-01-30T06:27:43.902Z,16.24
2019-01-30T06:28:43.850Z,16.24
2019-01-30T06:29:43.798Z,16.25
2019-01-30T06:30:43.749Z,16.33
2019-01-30T06:31:43.697Z,16.21
2019-01-30T06:32:43.648Z,16.25
2019-01-30T06:33:43.648Z,16.24
2019-01-30T06:34:43.545Z,16.31
2019-01-30T06:35:43.495Z,16.25
2019-01-30T06:36:43.446Z,16.28
2019-01-30T06:37:43.393Z,16.31
2019-01-30T06:38:43.343Z,16.30
2019-01-30T06:39:43.313Z,16.25
2019-01-30T06:40:43.243Z,16.30
2019-01-30T06:41:43.191Z,16.27
2019-01-30T06:42:43.140Z,16.28
2019-01-30T06:43:43.090Z,16.24
2019-01-30T06:44:43.040Z,16.25
2019-01-30T06:45:42.988Z,16.20
2019-01-30T06:46:42.938Z,16.28
2019-01-30T06:47:42.889Z,16.25
2019-01-30T06:48:42.837Z,16.31
2019-01-30T06:49:42.785Z,16.25
2019-01-30T06:50:42.736Z,16.30
2019-01-30T06:51:42.686Z,16.25
2019-01-30T06:52:42.634Z,16.25
2019-01-30T06:53:42.583Z,16.34
2019-01-30T06:54:42.533Z,16.25
2019-01-30T06:55:42.481Z,16.27
2019-01-30T06:56:42.432Z,16.28
2019-01-30T06:57:42.381Z,16.25
2019-01-30T06:58:42.331Z,16.24
2019-01-30T06:59:42.281Z,16.23
2019-01-30T07:00:42.230Z,16.25
2019-01-30T07:01:42.180Z,16.23
2019-01-30T07:02:42.131Z,16.23
2019-01-30T07:03:42.078Z,16.30
2019-01-30T07:04:42.036Z,16.25
2019-01-30T07:05:41.976Z,16.25
2019-01-30T07:06:41.927Z,16.35
2019-01-30T07:07:41.876Z,16.25
2019-01-30T07:08:41.825Z,16.27
2019-01-30T07:09:41.775Z,16.24
2019-01-30T07:10:41.723Z,16.35
2019-01-30T07:11:41.674Z,16.28
2019-01-30T07:12:41.622Z,16.27
2019-01-30T07:13:41.571Z,16.28
2019-01-30T07:14:41.571Z,16.27
2019-01-30T07:15:41.473Z,16.30
2019-01-30T07:16:41.422Z,16.30
2019-01-30T07:17:41.371Z,16.34
2019-01-30T07:18:41.320Z,16.33
2019-01-30T07:19:41.269Z,16.43
2019-01-30T07:20:41.218Z,16.42
2019-01-30T07:21:41.168Z,16.49
2019-01-30T07:22:41.116Z,16.45
2019-01-30T07:23:41.067Z,16.48
2019-01-30T07:24:41.017Z,16.52
2019-01-30T07:25:40.967Z,16.56
2019-01-30T07:26:40.915Z,16.52
2019-01-30T07:27:40.865Z,16.57
2019-01-30T07:28:40.815Z,16.52
2019-01-30T07:29:40.861Z,16.46
2019-01-30T07:30:40.713Z,16.56
2019-01-30T07:31:40.663Z,16.56
2019-01-30T07:32:42.344Z,16.53
2019-01-30T07:33:40.563Z,16.57
2019-01-30T07:34:40.511Z,16.60
2019-01-30T07:35:40.460Z,16.60
2019-01-30T07:36:40.410Z,16.57
2019-01-30T07:37:40.359Z,16.66
2019-01-30T07:38:40.309Z,16.61
2019-01-30T07:39:40.259Z,16.49
2019-01-30T07:40:40.208Z,16.56
2019-01-30T07:41:40.157Z,16.57
2019-01-30T07:42:40.107Z,16.57
2019-01-30T07:43:40.057Z,16.49
2019-01-30T07:44:50.278Z,16.53
2019-01-30T07:45:40.085Z,16.53
2019-01-30T07:46:39.904Z,16.49
2019-01-30T07:47:39.855Z,16.41
2019-01-30T07:48:39.805Z,16.43
2019-01-30T07:49:39.754Z,16.46
2019-01-30T07:50:39.702Z,16.49
2019-01-30T07:51:39.653Z,16.46
2019-01-30T07:52:39.603Z,16.43
2019-01-30T07:53:39.602Z,16.41
2019-01-30T07:54:39.503Z,16.45
2019-01-30T07:55:39.454Z,16.48
2019-01-30T07:56:39.401Z,16.41
2019-01-30T07:57:39.350Z,16.45
2019-01-30T07:58:39.299Z,16.46
2019-01-30T07:59:39.249Z,16.39
2019-01-30T08:00:39.200Z,16.42
2019-01-30T08:01:39.147Z,16.41
2019-01-30T08:02:39.097Z,16.42
2019-01-30T08:03:39.138Z,16.42
2019-01-30T08:04:38.998Z,16.31
2019-01-30T08:05:38.946Z,16.28
2019-01-30T08:06:38.896Z,16.33
2019-01-30T08:07:38.846Z,16.31
2019-01-30T08:08:38.795Z,16.41
2019-01-30T08:09:38.745Z,16.27
2019-01-30T08:10:38.694Z,16.24
2019-01-30T08:11:38.644Z,16.23
2019-01-30T08:12:38.645Z,16.30
2019-01-30T08:13:38.593Z,16.15
2019-01-30T08:14:38.493Z,16.20
2019-01-30T08:15:38.443Z,16.23
2019-01-30T08:16:38.393Z,16.21
2019-01-30T08:17:38.341Z,16.15
2019-01-30T08:18:38.290Z,16.12
2019-01-30T08:19:38.243Z,16.27
2019-01-30T08:20:38.193Z,16.20
2019-01-30T08:21:38.142Z,16.08
2019-01-30T08:22:38.091Z,16.20
2019-01-30T08:23:38.039Z,16.30
2019-01-30T08:24:38.297Z,16.24
2019-01-30T08:25:37.938Z,16.33
2019-01-30T08:26:37.949Z,16.45
2019-01-30T08:27:38.141Z,16.49
2019-01-30T08:28:37.971Z,16.60
2019-01-30T08:29:37.744Z,16.60
2019-01-30T08:30:38.216Z,16.66
2019-01-30T08:31:38.005Z,16.67
2019-01-30T08:32:37.884Z,16.73
2019-01-30T08:33:37.586Z,16.75
2019-01-30T08:34:37.486Z,16.83
2019-01-30T08:35:37.438Z,16.81
2019-01-30T08:36:37.386Z,16.75
2019-01-30T08:37:38.564Z,16.79
2019-01-30T08:38:37.285Z,16.91
2019-01-30T08:39:37.236Z,16.89
2019-01-30T08:40:37.186Z,16.82
2019-01-30T08:41:37.135Z,16.89
2019-01-30T08:42:37.085Z,16.94
2019-01-30T08:43:37.036Z,16.88
2019-01-30T08:44:46.723Z,16.89
2019-01-30T08:45:36.935Z,16.93
2019-01-30T08:46:36.885Z,16.93
2019-01-30T08:47:36.834Z,16.97
2019-01-30T08:48:36.786Z,16.96
2019-01-30T08:49:36.733Z,16.94
2019-01-30T08:50:36.684Z,16.98
2019-01-30T08:51:36.642Z,16.97
2019-01-30T08:52:36.586Z,16.93
2019-01-30T08:53:36.588Z,16.93
2019-01-30T08:54:36.492Z,16.97
2019-01-30T08:55:36.435Z,17.03
2019-01-30T08:56:39.053Z,16.93
2019-01-30T08:57:36.337Z,16.89
2019-01-30T08:58:36.285Z,16.89
2019-01-30T08:59:36.235Z,16.86
2019-01-30T09:00:36.187Z,16.88
2019-01-30T09:01:36.139Z,16.81
2019-01-30T09:02:36.091Z,16.82
2019-01-30T09:03:36.035Z,16.81
2019-01-30T09:04:35.985Z,16.83
2019-01-30T09:05:35.933Z,16.82
2019-01-30T09:06:35.885Z,16.79
2019-01-30T09:07:43.939Z,16.79
2019-01-30T09:08:35.786Z,16.73
2019-01-30T09:09:35.739Z,16.73
2019-01-30T09:10:35.685Z,16.82
2019-01-30T09:11:35.633Z,16.86
2019-01-30T09:12:35.584Z,16.78
2019-01-30T09:13:35.584Z,16.93
2019-01-30T09:14:35.483Z,16.91
2019-01-30T09:15:35.433Z,16.86
2019-01-30T09:16:35.392Z,16.79
2019-01-30T09:17:35.334Z,16.82
2019-01-30T09:18:35.284Z,16.82
2019-01-30T09:19:35.236Z,16.85
2019-01-30T09:20:35.182Z,16.76
2019-01-30T09:21:35.134Z,16.78
2019-01-30T09:22:35.083Z,16.78
2019-01-30T09:23:35.033Z,16.81
2019-01-30T09:24:34.986Z,16.79
2019-01-30T09:25:34.932Z,16.82
2019-01-30T09:26:34.883Z,16.82
2019-01-30T09:27:34.834Z,16.68
2019-01-30T09:28:34.812Z,16.71
2019-01-30T09:29:34.732Z,16.71
2019-01-30T09:30:34.682Z,16.64
2019-01-30T09:31:34.632Z,16.73
2019-01-30T09:32:34.581Z,16.64
2019-01-30T09:33:34.532Z,16.66
2019-01-30T09:34:34.481Z,16.67
2019-01-30T09:35:34.431Z,16.56
2019-01-30T09:36:34.400Z,16.57
2019-01-30T09:37:34.330Z,16.48
2019-01-30T09:38:34.281Z,16.61
2019-01-30T09:39:34.231Z,16.61
2019-01-30T09:40:34.183Z,16.60
2019-01-30T09:41:34.129Z,16.64
2019-01-30T09:42:34.096Z,16.50
2019-01-30T09:43:34.031Z,16.52
2019-01-30T09:44:34.024Z,16.49
2019-01-30T09:45:33.949Z,16.52
2019-01-30T09:46:33.880Z,16.48
2019-01-30T09:47:33.832Z,16.50
2019-01-30T09:48:33.832Z,16.56
2019-01-30T09:49:33.735Z,16.63
2019-01-30T09:50:34.316Z,16.52
2019-01-30T09:51:33.628Z,16.58
2019-01-30T09:52:33.580Z,16.50
2019-01-30T09:53:33.556Z,16.60
2019-01-30T09:54:33.478Z,16.60
2019-01-30T09:55:33.432Z,16.53
2019-01-30T09:56:33.379Z,16.60
2019-01-30T09:57:33.327Z,16.64
2019-01-30T09:58:33.279Z,16.61
2019-01-30T09:59:33.228Z,16.64
2019-01-30T10:00:33.182Z,16.60
2019-01-30T10:01:33.130Z,16.52
2019-01-30T10:02:33.077Z,16.52
2019-01-30T10:03:36.354Z,16.56
2019-01-30T10:04:32.981Z,16.56
2019-01-30T10:05:32.926Z,16.53
2019-01-30T10:06:32.877Z,16.46
2019-01-30T10:07:32.828Z,16.46
2019-01-30T10:08:32.778Z,16.48
2019-01-30T10:09:32.727Z,16.48
2019-01-30T10:10:32.677Z,16.50
2019-01-30T10:11:32.626Z,16.50
2019-01-30T10:12:32.578Z,16.52
2019-01-30T10:13:32.577Z,16.53
2019-01-30T10:14:32.476Z,16.50
2019-01-30T10:15:32.426Z,16.57
2019-01-30T10:16:32.377Z,16.52
2019-01-30T10:17:32.326Z,16.60
2019-01-30T10:18:32.276Z,16.52
2019-01-30T10:19:32.226Z,16.57
2019-01-30T10:20:32.176Z,16.50
2019-01-30T10:21:32.126Z,16.52
2019-01-30T10:22:32.077Z,16.56
2019-01-30T10:23:32.027Z,16.52
2019-01-30T10:24:31.975Z,16.61
2019-01-30T10:25:31.930Z,16.53
2019-01-30T10:26:31.875Z,16.58
2019-01-30T10:27:31.824Z,16.52
2019-01-30T10:28:31.775Z,16.63
2019-01-30T10:29:31.724Z,16.61
2019-01-30T10:30:31.677Z,16.56
2019-01-30T10:31:31.625Z,16.39
2019-01-30T10:32:31.574Z,16.46
2019-01-30T10:33:31.576Z,16.38
2019-01-30T10:34:31.473Z,16.42
2019-01-30T10:35:31.424Z,16.45
2019-01-30T10:36:31.376Z,16.38
2019-01-30T10:37:31.323Z,16.31
2019-01-30T10:38:31.275Z,16.35
2019-01-30T10:39:31.223Z,16.41
2019-01-30T10:40:31.173Z,16.27
2019-01-30T10:41:31.126Z,16.25
2019-01-30T10:42:31.073Z,16.25
2019-01-30T10:43:31.022Z,16.31
2019-01-30T10:44:30.972Z,16.27
2019-01-30T10:45:30.921Z,16.28
2019-01-30T10:46:30.875Z,16.30
2019-01-30T10:47:30.823Z,16.25
2019-01-30T10:48:30.773Z,16.35
2019-01-30T10:49:30.722Z,16.28
2019-01-30T10:50:30.672Z,16.28
2019-01-30T10:51:30.624Z,16.35
2019-01-30T10:52:30.574Z,16.31
2019-01-30T10:53:30.623Z,16.33
2019-01-30T10:54:30.471Z,16.31
2019-01-30T10:55:30.421Z,16.25
2019-01-30T10:56:30.370Z,16.28
2019-01-30T10:57:30.320Z,16.27
2019-01-30T10:58:30.271Z,16.23
2019-01-30T10:59:30.221Z,16.24
2019-01-30T11:00:30.170Z,16.33
2019-01-30T11:01:30.119Z,16.35
2019-01-30T11:02:30.068Z,16.25
2019-01-30T11:03:30.019Z,16.25
2019-01-30T11:04:29.969Z,16.34
2019-01-30T11:05:29.921Z,16.27
2019-01-30T11:06:29.867Z,16.24
2019-01-30T11:07:29.818Z,16.38
2019-01-30T11:08:29.769Z,16.25
2019-01-30T11:09:29.718Z,16.28
2019-01-30T11:10:29.666Z,16.31
2019-01-30T11:11:29.617Z,16.24
2019-01-30T11:12:29.568Z,16.27
2019-01-30T11:13:29.516Z,16.33
2019-01-30T11:14:29.465Z,16.33
2019-01-30T11:15:29.415Z,16.30
2019-01-30T11:16:29.366Z,16.28
2019-01-30T11:17:29.315Z,16.33
2019-01-30T11:18:29.265Z,16.28
2019-01-30T11:19:29.215Z,16.28
2019-01-30T11:20:29.167Z,16.27
2019-01-30T11:21:29.117Z,16.30
2019-01-30T11:22:29.064Z,16.33
2019-01-30T11:23:29.013Z,16.35
2019-01-30T11:24:28.967Z,16.30
2019-01-30T11:25:28.919Z,16.24
2019-01-30T11:26:28.864Z,16.39
2019-01-30T11:27:28.815Z,16.30
2019-01-30T11:28:28.764Z,16.28
2019-01-30T11:29:28.714Z,16.31
2019-01-30T11:30:28.712Z,16.35
2019-01-30T11:31:28.613Z,16.30
2019-01-30T11:32:28.612Z,16.33
2019-01-30T11:33:28.510Z,16.31
2019-01-30T11:34:28.460Z,16.25
2019-01-30T11:35:28.410Z,16.25
2019-01-30T11:36:28.361Z,16.28
2019-01-30T11:37:28.310Z,16.33
2019-01-30T11:38:28.259Z,16.35
2019-01-30T11:39:28.209Z,16.38
2019-01-30T11:40:28.160Z,16.38
2019-01-30T11:41:28.109Z,16.42
2019-01-30T11:42:28.060Z,16.41
2019-01-30T11:43:28.008Z,16.46
2019-01-30T11:44:28.074Z,16.45
2019-01-30T11:45:27.908Z,16.38
2019-01-30T11:46:27.858Z,16.45
2019-01-30T11:47:27.808Z,16.38
2019-01-30T11:48:27.757Z,16.41
2019-01-30T11:49:27.708Z,16.43
2019-01-30T11:50:27.657Z,16.41
2019-01-30T11:51:27.607Z,16.41
2019-01-30T11:52:27.612Z,16.34
2019-01-30T11:53:27.505Z,16.28
2019-01-30T11:54:27.456Z,16.28
2019-01-30T11:55:27.408Z,16.39
2019-01-30T11:56:27.356Z,16.41
2019-01-30T11:57:27.304Z,16.33
2019-01-30T11:58:27.255Z,16.33
2019-01-30T11:59:27.204Z,16.33
2019-01-30T12:00:27.154Z,16.33
2019-01-30T12:01:27.106Z,16.23
2019-01-30T12:02:27.054Z,16.17
2019-01-30T12:03:27.004Z,16.25
2019-01-30T12:04:26.956Z,16.31
2019-01-30T12:05:26.903Z,16.24
2019-01-30T12:06:26.853Z,16.33
2019-01-30T12:07:26.803Z,16.33
2019-01-30T12:08:26.753Z,16.33
2019-01-30T12:09:26.701Z,16.31
2019-01-30T12:10:26.652Z,16.14
2019-01-30T12:11:26.602Z,16.12
2019-01-30T12:12:26.552Z,16.28
2019-01-30T12:13:26.501Z,16.35
2019-01-30T12:14:26.451Z,16.27
2019-01-30T12:15:26.403Z,16.24
2019-01-30T12:16:26.401Z,16.31
2019-01-30T12:17:26.299Z,16.41
2019-01-30T12:18:26.249Z,16.38
2019-01-30T12:19:26.199Z,16.41
2019-01-30T12:20:26.150Z,16.43
2019-01-30T12:21:26.181Z,16.46
2019-01-30T12:22:26.049Z,16.35
2019-01-30T12:23:25.999Z,16.42
2019-01-30T12:24:25.949Z,16.46
2019-01-30T12:25:25.898Z,16.46
2019-01-30T12:26:25.848Z,16.43
2019-01-30T12:27:25.798Z,16.43
2019-01-30T12:28:25.748Z,16.48
2019-01-30T12:29:25.698Z,16.42
2019-01-30T12:30:25.646Z,16.35
2019-01-30T12:31:25.596Z,16.34
2019-01-30T12:32:25.599Z,16.31
2019-01-30T12:33:25.496Z,16.31
2019-01-30T12:34:28.311Z,16.23
2019-01-30T12:35:25.396Z,16.21
2019-01-30T12:36:25.346Z,16.28
2019-01-30T12:37:25.295Z,16.25
2019-01-30T12:38:25.245Z,16.27
2019-01-30T12:39:25.197Z,16.24
2019-01-30T12:40:25.171Z,16.21
2019-01-30T12:41:25.096Z,16.20
2019-01-30T12:42:25.042Z,16.30
2019-01-30T12:43:24.992Z,16.30
2019-01-30T12:44:24.943Z,16.27
2019-01-30T12:45:24.892Z,16.21
2019-01-30T12:46:26.872Z,16.28
2019-01-30T12:47:24.793Z,16.25
2019-01-30T12:48:24.743Z,16.34
2019-01-30T12:49:24.694Z,16.30
2019-01-30T12:50:24.642Z,16.31
2019-01-30T12:51:24.591Z,16.23